Time;durP1;ratioP1;P1;durP2;ratioP2;P2;SDS_P1;SDS_P2;PMS_P1;PMS_P2;Temp;Humidity;BMP_temperature;BMP_pressure;BME280_temperature;BME280_humidity;BME280_pressure;Samples;Min_cycle;Max_cycle;Signal;HPM_P1;HPM_P2
2024/01/09 00:00:54;;;;;;;9.38;4.47;;;-3.20;1.00;;;;;;5008564;28;20049;-77
2024/01/09 00:03:23;;;;;;;8.00;4.85;;;-3.20;1.00;;;;;;5023900;28;20160;-77
2024/01/09 00:05:48;;;;;;;7.93;5.05;;;-3.20;1.00;;;;;;4982557;28;20658;-79
2024/01/09 00:08:14;;;;;;;9.05;4.68;;;-3.20;1.00;;;;;;5023375;28;20113;-80
2024/01/09 00:10:40;;;;;;;7.75;4.60;;;-3.20;1.00;;;;;;5001602;28;20458;-80
2024/01/09 00:13:06;;;;;;;6.90;4.82;;;-3.30;1.00;;;;;;4994195;28;20481;-80
2024/01/09 00:15:32;;;;;;;8.70;4.97;;;-3.30;1.00;;;;;;4992287;28;20498;-79
2024/01/09 00:17:58;;;;;;;9.02;4.72;;;-3.30;1.00;;;;;;4995605;28;20042;-80
2024/01/09 00:20:24;;;;;;;7.63;4.93;;;-3.30;1.00;;;;;;4982518;28;20050;-80
2024/01/09 00:22:53;;;;;;;6.88;4.55;;;-3.30;1.00;;;;;;5020765;28;20057;-79
2024/01/09 00:25:19;;;;;;;7.00;4.80;;;-3.40;1.00;;;;;;4979854;28;20045;-80
2024/01/09 00:27:46;;;;;;;8.77;4.65;;;-3.30;1.00;;;;;;4994852;28;20489;-80
2024/01/09 00:30:12;;;;;;;7.78;4.97;;;-3.30;1.00;;;;;;4993695;28;20053;-77
2024/01/09 00:32:38;;;;;;;7.10;4.53;;;-3.30;1.00;;;;;;4984277;28;20037;-77
2024/01/09 00:35:05;;;;;;;7.93;5.00;;;-3.40;1.00;;;;;;4986539;28;20042;-77
2024/01/09 00:37:31;;;;;;;7.82;5.15;;;-3.40;1.00;;;;;;4980403;28;20057;-77
2024/01/09 00:39:57;;;;;;;7.25;4.72;;;-3.30;19.20;;;;;;5013162;28;20041;-77
2024/01/09 00:42:23;;;;;;;8.52;4.55;;;-3.30;30.00;;;;;;4980437;28;20053;-77
2024/01/09 00:44:48;;;;;;;9.27;5.13;;;-3.30;40.90;;;;;;4984411;28;20050;-77
2024/01/09 00:47:14;;;;;;;9.82;5.05;;;-3.40;53.90;;;;;;4988961;28;20084;-77
2024/01/09 00:49:40;;;;;;;9.27;4.88;;;-3.40;33.70;;;;;;4994633;28;20084;-77
2024/01/09 00:52:06;;;;;;;7.57;4.72;;;-3.40;39.10;;;;;;4995935;28;20465;-76
2024/01/09 00:54:32;;;;;;;7.05;4.78;;;-3.50;18.90;;;;;;5016024;28;20048;-77
2024/01/09 00:56:58;;;;;;;8.00;4.68;;;-3.50;11.60;;;;;;4997658;28;20132;-77
2024/01/09 00:59:24;;;;;;;9.60;5.15;;;-3.50;13.40;;;;;;5023314;28;20129;-77
2024/01/09 01:01:50;;;;;;;7.90;4.55;;;-3.50;17.30;;;;;;5019214;28;20057;-77
2024/01/09 01:04:17;;;;;;;7.47;4.85;;;-3.50;12.80;;;;;;4999697;28;20057;-77
2024/01/09 01:06:44;;;;;;;7.43;4.82;;;-3.50;22.70;;;;;;5028664;28;20038;-77
2024/01/09 01:09:10;;;;;;;9.77;4.97;;;-3.50;41.00;;;;;;4997766;28;20054;-77
2024/01/09 01:11:36;;;;;;;10.63;5.80;;;-3.50;48.00;;;;;;5001897;28;20133;-77
2024/01/09 01:14:02;;;;;;;10.18;5.20;;;-3.50;91.40;;;;;;4998575;28;20409;-77
2024/01/09 01:16:29;;;;;;;8.73;4.93;;;-3.50;89.60;;;;;;4997248;28;20049;-77
2024/01/09 01:18:55;;;;;;;8.07;5.28;;;-3.50;99.90;;;;;;5028612;28;20137;-77
2024/01/09 01:21:21;;;;;;;8.57;4.85;;;-3.50;99.90;;;;;;5000187;28;20557;-77
2024/01/09 01:23:46;;;;;;;8.13;4.90;;;-3.50;99.90;;;;;;4998075;28;20107;-76
2024/01/09 01:26:12;;;;;;;9.95;5.20;;;-3.50;99.90;;;;;;5005634;28;20129;-77
2024/01/09 01:28:38;;;;;;;11.35;4.88;;;-3.50;99.90;;;;;;4998910;28;20116;-77
2024/01/09 01:31:04;;;;;;;8.65;5.25;;;-3.50;99.90;;;;;;4981079;28;20129;-77
2024/01/09 01:33:30;;;;;;;10.05;4.97;;;-3.60;99.90;;;;;;4984572;28;20045;-77
2024/01/09 01:35:55;;;;;;;8.23;4.70;;;-3.60;99.90;;;;;;4987769;28;20148;-77
2024/01/09 01:38:21;;;;;;;9.32;5.32;;;-3.60;99.90;;;;;;4998007;28;20413;-77
2024/01/09 01:40:47;;;;;;;7.85;5.13;;;-3.60;99.90;;;;;;4995057;28;20057;-76
2024/01/09 01:43:13;;;;;;;7.90;4.47;;;-3.60;99.90;;;;;;5030924;28;20045;-76
2024/01/09 01:45:38;;;;;;;7.45;4.75;;;-3.70;95.90;;;;;;5031299;28;20388;-77
2024/01/09 01:48:05;;;;;;;8.45;4.40;;;-3.60;99.90;;;;;;4997528;28;20534;-77
2024/01/09 01:50:32;;;;;;;8.80;4.68;;;-3.70;99.90;;;;;;4983867;28;20483;-77
2024/01/09 01:53:00;;;;;;;8.45;4.80;;;-3.70;87.10;;;;;;4982260;28;20041;-77
2024/01/09 01:55:27;;;;;;;7.70;4.63;;;-3.70;89.10;;;;;;4984482;28;20077;-77
2024/01/09 01:57:54;;;;;;;6.10;4.25;;;-3.70;50.10;;;;;;5000457;28;20044;-77
2024/01/09 02:00:21;;;;;;;10.52;5.18;;;-3.70;12.00;;;;;;4997463;28;20037;-77
2024/01/09 02:02:48;;;;;;;8.90;4.82;;;-3.70;8.80;;;;;;4993305;28;20030;-77
2024/01/09 02:05:16;;;;;;;7.65;5.05;;;-3.70;87.70;;;;;;4984842;28;20152;-77
2024/01/09 02:07:46;;;;;;;7.95;4.43;;;-3.80;97.70;;;;;;4991168;28;20505;-77
2024/01/09 02:10:12;;;;;;;7.68;4.45;;;-3.70;99.90;;;;;;5008498;28;20038;-77
2024/01/09 02:12:38;;;;;;;5.40;4.13;;;-3.80;99.90;;;;;;4998393;28;20034;-76
2024/01/09 02:15:04;;;;;;;9.35;5.38;;;-3.80;96.70;;;;;;4997089;28;20389;-77
2024/01/09 02:17:31;;;;;;;6.60;4.80;;;-3.80;99.60;;;;;;4991740;28;20030;-77
2024/01/09 02:20:01;;;;;;;7.45;4.78;;;-3.90;99.70;;;;;;5006396;28;20178;-77
2024/01/09 02:22:26;;;;;;;9.13;4.38;;;-3.90;30.20;;;;;;4983062;28;20088;-76
2024/01/09 02:24:52;;;;;;;7.53;4.57;;;-3.90;94.10;;;;;;4991519;28;20413;-77
2024/01/09 02:27:31;;;;;;;9.40;4.68;;;-3.90;97.80;;;;;;4999751;28;20073;-77
2024/01/09 02:29:58;;;;;;;6.22;4.07;;;-3.90;96.90;;;;;;5017209;28;20124;-77
2024/01/09 02:32:24;;;;;;;6.55;4.53;;;-3.90;95.60;;;;;;4993499;28;20056;-77
2024/01/09 02:34:52;;;;;;;7.38;4.03;;;-3.90;90.20;;;;;;5009730;28;20397;-77
2024/01/09 02:37:17;;;;;;;8.68;4.20;;;-3.90;99.90;;;;;;5025902;28;20128;-77
2024/01/09 02:39:43;;;;;;;7.13;4.25;;;-3.90;99.90;;;;;;4980258;28;20129;-77
2024/01/09 02:42:09;;;;;;;7.47;4.80;;;-3.90;99.20;;;;;;5014114;28;20154;-77
2024/01/09 02:44:35;;;;;;;6.25;4.40;;;-3.90;36.60;;;;;;4989633;28;20064;-77
2024/01/09 02:47:01;;;;;;;7.47;4.20;;;-3.90;82.30;;;;;;4995633;28;20046;-77
2024/01/09 02:49:26;;;;;;;9.02;4.53;;;-3.90;99.90;;;;;;4986300;28;20037;-77
2024/01/09 02:51:53;;;;;;;5.28;4.07;;;-3.90;99.00;;;;;;4983695;28;20064;-78
2024/01/09 02:54:19;;;;;;;6.15;4.18;;;-3.90;97.50;;;;;;4975709;28;20053;-77
2024/01/09 02:56:45;;;;;;;6.13;4.43;;;-3.90;99.90;;;;;;4988151;28;20409;-78
2024/01/09 02:59:10;;;;;;;10.80;4.80;;;-3.90;82.10;;;;;;4996308;28;20049;-78
2024/01/09 03:01:36;;;;;;;8.18;4.10;;;-4.00;30.30;;;;;;4998306;28;20050;-77
2024/01/09 03:04:02;;;;;;;9.48;4.43;;;-4.00;6.80;;;;;;5030423;28;20400;-77
2024/01/09 03:06:27;;;;;;;8.88;4.95;;;-3.90;23.80;;;;;;4986401;28;20046;-77
2024/01/09 03:08:53;;;;;;;6.25;4.10;;;-3.90;55.20;;;;;;4982856;28;20046;-77
2024/01/09 03:11:19;;;;;;;7.32;4.60;;;-4.00;75.60;;;;;;5016033;28;20056;-77
2024/01/09 03:13:45;;;;;;;10.55;4.63;;;-4.00;47.60;;;;;;4983551;28;20049;-78
2024/01/09 03:16:12;;;;;;;7.20;4.47;;;-4.00;37.80;;;;;;4995596;28;20411;-78
2024/01/09 03:18:39;;;;;;;7.82;4.47;;;-4.10;18.60;;;;;;4997066;28;20053;-78
2024/01/09 03:21:05;;;;;;;9.13;4.22;;;-4.10;16.70;;;;;;4987420;28;20041;-77
2024/01/09 03:23:34;;;;;;;7.43;4.97;;;-4.10;1.00;;;;;;4982500;28;20108;-77
2024/01/09 03:25:59;;;;;;;7.13;4.53;;;-4.20;1.00;;;;;;4995083;28;20486;-77
2024/01/09 03:28:26;;;;;;;11.57;4.43;;;-4.10;1.00;;;;;;4990927;28;20323;-78
2024/01/09 03:30:52;;;;;;;8.32;4.43;;;-4.20;1.00;;;;;;4982234;28;20490;-78
2024/01/09 03:33:18;;;;;;;6.72;4.47;;;-4.20;1.00;;;;;;5024626;28;20100;-77
2024/01/09 03:35:44;;;;;;;11.05;4.80;;;-4.20;1.00;;;;;;4992775;28;20041;-79
2024/01/09 03:38:09;;;;;;;7.03;4.60;;;-4.20;1.00;;;;;;4980117;28;20045;-78
2024/01/09 03:40:36;;;;;;;8.25;4.57;;;-4.30;1.00;;;;;;4983676;28;20045;-78
2024/01/09 03:43:07;;;;;;;10.25;4.63;;;-4.30;1.00;;;;;;4982682;28;20068;-77
2024/01/09 03:45:33;;;;;;;7.60;4.72;;;-4.40;1.00;;;;;;5013343;28;20044;-78
2024/01/09 03:47:59;;;;;;;8.35;4.50;;;-4.30;1.00;;;;;;4999421;28;20045;-78
2024/01/09 03:50:24;;;;;;;9.30;5.13;;;-4.30;1.00;;;;;;4985246;28;20302;-78
2024/01/09 03:52:50;;;;;;;7.10;4.47;;;-4.30;1.00;;;;;;4982994;28;20109;-78
2024/01/09 03:55:16;;;;;;;8.65;4.47;;;-4.30;1.00;;;;;;4995201;28;20065;-78
2024/01/09 03:57:42;;;;;;;9.85;4.63;;;-4.30;1.00;;;;;;4998773;28;20088;-77
2024/01/09 04:00:09;;;;;;;8.95;4.78;;;-4.30;1.00;;;;;;4997163;28;20460;-78
2024/01/09 04:02:35;;;;;;;6.75;4.55;;;-4.30;1.00;;;;;;4989807;28;20045;-77
2024/01/09 04:05:01;;;;;;;7.90;5.13;;;-4.30;1.00;;;;;;4989112;28;20049;-77
2024/01/09 04:07:27;;;;;;;5.90;4.25;;;-4.30;1.00;;;;;;4993596;28;20124;-78
2024/01/09 04:09:53;;;;;;;8.30;4.95;;;-4.40;1.00;;;;;;4989816;28;20212;-77
2024/01/09 04:12:19;;;;;;;9.20;4.30;;;-4.40;1.00;;;;;;4983666;28;20042;-77
2024/01/09 04:14:45;;;;;;;8.40;5.00;;;-4.40;1.00;;;;;;4981776;28;20516;-77
2024/01/09 04:17:11;;;;;;;7.03;4.53;;;-4.40;1.00;;;;;;4987966;28;20050;-77
2024/01/09 04:19:38;;;;;;;8.70;5.05;;;-4.40;1.00;;;;;;4993256;28;20050;-77
2024/01/09 04:22:05;;;;;;;10.35;4.70;;;-4.40;1.00;;;;;;4991494;28;20041;-78
2024/01/09 04:24:32;;;;;;;6.78;4.50;;;-4.50;1.00;;;;;;5010553;28;20404;-77
2024/01/09 04:26:57;;;;;;;6.90;4.35;;;-4.50;1.00;;;;;;4990853;28;20041;-77
2024/01/09 04:29:25;;;;;;;7.75;4.80;;;-4.50;1.00;;;;;;4993218;28;20176;-77
2024/01/09 04:31:51;;;;;;;8.35;4.70;;;-4.50;1.00;;;;;;4994067;28;20103;-78
2024/01/09 04:34:16;;;;;;;11.57;5.28;;;-4.60;1.00;;;;;;4997642;28;20049;-77
2024/01/09 04:36:42;;;;;;;8.70;5.00;;;-4.60;1.00;;;;;;5019744;28;20057;-78
2024/01/09 04:39:08;;;;;;;9.05;4.80;;;-4.60;1.00;;;;;;4974067;28;20544;-77
2024/01/09 04:41:33;;;;;;;8.50;5.00;;;-4.60;1.00;;;;;;4991334;28;20373;-77
2024/01/09 04:43:59;;;;;;;7.80;4.60;;;-4.60;1.00;;;;;;5011541;28;20103;-78
2024/01/09 04:46:25;;;;;;;6.88;4.45;;;-4.60;1.00;;;;;;4994494;28;20504;-78
2024/01/09 04:48:51;;;;;;;8.05;4.90;;;-4.60;1.00;;;;;;4993713;28;20041;-78
2024/01/09 04:51:16;;;;;;;9.80;5.03;;;-4.60;1.00;;;;;;4991988;28;20551;-77
2024/01/09 04:53:42;;;;;;;8.30;4.53;;;-4.70;1.00;;;;;;4979731;28;20053;-76
2024/01/09 04:56:08;;;;;;;7.57;4.70;;;-4.70;1.00;;;;;;4994663;28;20163;-77
2024/01/09 04:58:34;;;;;;;7.07;4.68;;;-4.70;1.00;;;;;;4991455;28;20112;-77
2024/01/09 05:01:00;;;;;;;8.90;4.50;;;-4.70;1.00;;;;;;4991248;28;20077;-77
2024/01/09 05:03:26;;;;;;;7.05;4.65;;;-4.70;1.00;;;;;;4994100;28;20085;-77
2024/01/09 05:05:52;;;;;;;8.13;4.28;;;-4.80;1.00;;;;;;4992094;28;20132;-76
2024/01/09 05:08:18;;;;;;;8.50;4.78;;;-4.70;1.00;;;;;;5024826;28;20384;-77
2024/01/09 05:10:44;;;;;;;7.78;4.95;;;-4.70;1.00;;;;;;4982119;28;20061;-76
2024/01/09 05:13:13;;;;;;;7.95;5.38;;;-4.80;1.00;;;;;;4992255;28;20421;-77
2024/01/09 05:15:38;;;;;;;7.18;4.90;;;-4.70;1.00;;;;;;4990323;28;20549;-77
2024/01/09 05:18:04;;;;;;;6.63;4.68;;;-4.70;1.00;;;;;;4996490;28;20117;-77
2024/01/09 05:20:30;;;;;;;6.68;4.93;;;-4.80;99.90;;;;;;4993179;28;20034;-77
2024/01/09 05:22:56;;;;;;;6.47;4.30;;;-4.70;99.90;;;;;;4979394;28;20185;-77
2024/01/09 05:25:21;;;;;;;9.57;6.22;;;-4.80;99.90;;;;;;4982881;28;20073;-77
2024/01/09 05:27:47;;;;;;;9.38;4.97;;;-4.70;99.90;;;;;;4995338;28;20543;-77
2024/01/09 05:30:13;;;;;;;7.65;4.85;;;-4.70;99.90;;;;;;4980384;28;20482;-77
2024/01/09 05:32:39;;;;;;;6.70;4.53;;;-4.80;99.90;;;;;;5009466;28;20441;-77
2024/01/09 05:35:05;;;;;;;7.03;4.60;;;-4.80;99.90;;;;;;4991877;28;20088;-76
2024/01/09 05:37:31;;;;;;;8.70;5.03;;;-4.70;99.90;;;;;;4999738;28;20057;-80
2024/01/09 05:39:58;;;;;;;8.82;4.75;;;-4.80;99.90;;;;;;4999035;28;20389;-80
2024/01/09 05:42:24;;;;;;;8.25;4.72;;;-4.80;99.90;;;;;;4983112;28;20069;-80
2024/01/09 05:44:53;;;;;;;6.80;4.43;;;-4.90;99.90;;;;;;4997865;28;20053;-80
2024/01/09 05:47:18;;;;;;;6.97;4.32;;;-4.90;99.90;;;;;;4996935;28;20033;-80
2024/01/09 05:49:44;;;;;;;11.10;4.88;;;-4.90;99.90;;;;;;4987617;28;20397;-79
2024/01/09 05:52:10;;;;;;;10.40;5.15;;;-5.00;99.90;;;;;;4977035;28;20053;-80
2024/01/09 05:54:36;;;;;;;7.13;4.57;;;-4.90;99.90;;;;;;4997072;28;20390;-80
2024/01/09 05:57:01;;;;;;;7.60;4.32;;;-5.00;99.90;;;;;;5010955;28;20046;-79
2024/01/09 05:59:27;;;;;;;9.60;5.13;;;-5.00;99.90;;;;;;5029732;28;20282;-78
2024/01/09 06:01:53;;;;;;;7.43;4.63;;;-5.00;99.90;;;;;;4997589;28;20045;-77
2024/01/09 06:04:19;;;;;;;7.53;4.65;;;-4.90;99.90;;;;;;4989941;28;20058;-78
2024/01/09 06:06:45;;;;;;;8.15;4.60;;;-5.00;99.90;;;;;;4998108;28;20045;-77
2024/01/09 06:09:14;;;;;;;7.22;4.75;;;-5.00;99.90;;;;;;4994592;28;20128;-78
2024/01/09 06:11:39;;;;;;;6.85;4.40;;;-5.00;99.90;;;;;;5010643;28;20448;-77
2024/01/09 06:14:05;;;;;;;7.15;4.00;;;-5.00;99.90;;;;;;5000337;28;20132;-78
2024/01/09 06:16:31;;;;;;;7.65;4.55;;;-5.00;99.90;;;;;;4982407;28;20049;-77
2024/01/09 06:18:57;;;;;;;9.80;4.75;;;-5.00;99.90;;;;;;4987901;28;20527;-77
2024/01/09 06:21:23;;;;;;;7.20;4.55;;;-5.10;99.90;;;;;;5009423;28;20601;-77
2024/01/09 06:23:48;;;;;;;7.32;4.45;;;-5.10;99.90;;;;;;5007339;28;20057;-77
2024/01/09 06:26:14;;;;;;;7.50;4.70;;;-5.10;99.90;;;;;;4996474;28;20110;-78
2024/01/09 06:28:42;;;;;;;6.43;4.13;;;-5.10;99.90;;;;;;5001013;28;20134;-77
2024/01/09 06:31:08;;;;;;;8.75;4.70;;;-5.10;99.90;;;;;;4996262;28;20057;-78
2024/01/09 06:33:33;;;;;;;8.40;4.88;;;-5.20;99.90;;;;;;4981978;28;20512;-78
2024/01/09 06:36:00;;;;;;;8.43;4.28;;;-5.10;99.90;;;;;;4998692;28;20054;-78
2024/01/09 06:38:26;;;;;;;7.97;4.90;;;-5.10;99.90;;;;;;4992490;28;20042;-78
2024/01/09 06:40:52;;;;;;;7.70;4.93;;;-5.20;99.90;;;;;;5024520;28;20643;-78
2024/01/09 06:43:18;;;;;;;7.38;4.38;;;-5.20;99.90;;;;;;5030730;28;20121;-77
2024/01/09 06:45:43;;;;;;;7.20;4.32;;;-5.20;99.90;;;;;;4981913;28;20061;-77
2024/01/09 06:48:09;;;;;;;7.72;4.95;;;-5.20;99.90;;;;;;4996817;28;20515;-77
2024/01/09 06:50:35;;;;;;;6.13;4.43;;;-5.20;99.90;;;;;;4997288;28;20504;-77
2024/01/09 06:53:01;;;;;;;8.48;5.07;;;-5.30;99.90;;;;;;4992401;28;20041;-78
2024/01/09 06:55:30;;;;;;;7.25;4.45;;;-5.30;99.90;;;;;;4985273;28;20116;-77
2024/01/09 06:57:55;;;;;;;8.23;4.95;;;-5.30;99.90;;;;;;4985310;28;20042;-77
2024/01/09 07:00:21;;;;;;;8.40;4.53;;;-5.20;99.90;;;;;;4986995;28;20540;-77
2024/01/09 07:02:47;;;;;;;7.50;4.43;;;-5.30;99.90;;;;;;4991385;28;20045;-78
2024/01/09 07:05:13;;;;;;;8.65;4.60;;;-5.20;99.90;;;;;;4981652;28;20137;-78
2024/01/09 07:07:39;;;;;;;7.68;4.93;;;-5.20;99.90;;;;;;4978034;28;20121;-78
2024/01/09 07:10:06;;;;;;;9.93;4.85;;;-5.20;99.90;;;;;;5023729;28;21440;-78
2024/01/09 07:12:31;;;;;;;7.88;4.93;;;-5.20;99.90;;;;;;4994466;28;20064;-77
2024/01/09 07:14:58;;;;;;;7.43;4.70;;;-5.20;99.90;;;;;;4979361;28;20461;-78
2024/01/09 07:17:24;;;;;;;6.97;4.55;;;-5.30;99.90;;;;;;4989538;28;20052;-77
2024/01/09 07:19:50;;;;;;;8.80;5.10;;;-5.30;99.90;;;;;;5024437;28;20042;-77
2024/01/09 07:22:16;;;;;;;8.90;4.90;;;-5.20;99.90;;;;;;4995030;28;20365;-78
2024/01/09 07:24:42;;;;;;;8.10;4.55;;;-5.20;99.90;;;;;;4993905;28;20046;-77
2024/01/09 07:27:07;;;;;;;7.80;4.90;;;-5.30;99.90;;;;;;4994094;28;20042;-78
2024/01/09 07:29:33;;;;;;;8.50;5.15;;;-5.20;99.90;;;;;;4994478;28;20046;-78
2024/01/09 07:31:59;;;;;;;7.22;4.63;;;-5.30;99.90;;;;;;4981302;28;20046;-77
2024/01/09 07:34:25;;;;;;;7.47;4.78;;;-5.30;99.90;;;;;;4996376;28;20038;-77
2024/01/09 07:36:50;;;;;;;10.38;5.25;;;-5.30;99.90;;;;;;4995766;28;20062;-77
2024/01/09 07:39:16;;;;;;;9.90;5.32;;;-5.30;99.90;;;;;;4981622;28;20041;-77
2024/01/09 07:41:42;;;;;;;7.93;5.05;;;-5.40;99.90;;;;;;5010282;28;20163;-77
2024/01/09 07:44:08;;;;;;;6.50;4.18;;;-5.30;99.90;;;;;;4988951;28;20050;-77
2024/01/09 07:46:34;;;;;;;7.55;4.72;;;-5.30;99.90;;;;;;5000745;28;20046;-78
2024/01/09 07:48:59;;;;;;;8.52;5.13;;;-5.40;99.90;;;;;;4994087;28;20049;-78
2024/01/09 07:51:26;;;;;;;11.02;5.05;;;-5.30;99.90;;;;;;4994890;28;20034;-77
2024/01/09 07:53:52;;;;;;;8.20;4.97;;;-5.30;99.90;;;;;;4995882;28;20081;-78
2024/01/09 07:56:19;;;;;;;7.85;5.13;;;-5.30;99.90;;;;;;4997653;28;20130;-77
2024/01/09 07:58:45;;;;;;;8.75;4.53;;;-5.20;98.70;;;;;;4978257;28;20103;-78
2024/01/09 08:01:12;;;;;;;8.68;4.95;;;-5.20;90.50;;;;;;4983341;28;20800;-77
2024/01/09 08:03:40;;;;;;;7.63;4.57;;;-5.20;83.20;;;;;;4992453;28;20649;-78
2024/01/09 08:06:11;;;;;;;9.05;5.25;;;-5.20;78.80;;;;;;4995979;28;20501;-77
2024/01/09 08:08:38;;;;;;;7.20;4.80;;;-5.20;82.40;;;;;;5020578;28;20100;-77
2024/01/09 08:11:05;;;;;;;7.70;5.15;;;-5.20;72.40;;;;;;5009528;28;20117;-77
2024/01/09 08:13:31;;;;;;;8.57;4.95;;;-5.10;67.80;;;;;;4992879;28;20120;-78
2024/01/09 08:15:57;;;;;;;9.63;4.95;;;-5.10;56.00;;;;;;4987897;28;20151;-78
2024/01/09 08:18:23;;;;;;;9.75;5.20;;;-5.10;53.40;;;;;;5021139;28;20100;-77
2024/01/09 08:20:48;;;;;;;10.00;5.30;;;-5.10;48.10;;;;;;4984754;28;20054;-78
2024/01/09 08:23:15;;;;;;;6.72;5.15;;;-5.00;50.80;;;;;;4991962;28;20105;-77
2024/01/09 08:25:41;;;;;;;9.23;5.15;;;-5.00;40.00;;;;;;5002262;28;20579;-77
2024/01/09 08:28:10;;;;;;;7.68;4.55;;;-4.90;34.80;;;;;;4980693;28;20069;-77
2024/01/09 08:30:35;;;;;;;7.35;4.20;;;-4.90;33.90;;;;;;4997581;28;20141;-77
2024/01/09 08:33:01;;;;;;;6.88;4.72;;;-4.90;27.20;;;;;;5011998;28;20129;-78
2024/01/09 08:35:27;;;;;;;7.95;4.35;;;-4.90;20.00;;;;;;4989117;28;20038;-78
2024/01/09 08:37:53;;;;;;;7.55;4.82;;;-4.80;16.10;;;;;;4993720;28;20066;-78
2024/01/09 08:40:18;;;;;;;7.13;4.57;;;-4.80;17.10;;;;;;4975246;28;20042;-78
2024/01/09 08:42:44;;;;;;;9.43;5.10;;;-4.70;15.00;;;;;;5019919;28;20121;-78
2024/01/09 08:45:12;;;;;;;8.15;4.53;;;-4.70;5.70;;;;;;5019586;28;20046;-78
2024/01/09 08:47:38;;;;;;;7.50;4.53;;;-4.60;2.60;;;;;;4985730;28;20054;-78
2024/01/09 08:50:04;;;;;;;7.50;4.80;;;-4.60;1.00;;;;;;5006927;28;20108;-78
2024/01/09 08:52:31;;;;;;;7.93;4.38;;;-4.60;1.00;;;;;;5021830;28;20125;-77
2024/01/09 08:54:56;;;;;;;8.88;5.05;;;-4.50;1.00;;;;;;4982579;28;20121;-77
2024/01/09 08:57:22;;;;;;;6.85;4.28;;;-4.50;1.00;;;;;;4980289;28;20107;-78
2024/01/09 08:59:49;;;;;;;6.25;4.35;;;-4.40;1.00;;;;;;4994898;28;20050;-78
2024/01/09 09:02:17;;;;;;;5.88;3.90;;;-4.40;1.00;;;;;;4976007;28;20042;-78
2024/01/09 09:04:44;;;;;;;7.88;4.30;;;-4.40;1.00;;;;;;4979468;28;20149;-78
2024/01/09 09:07:10;;;;;;;7.10;4.30;;;-4.30;1.00;;;;;;5025017;28;20041;-78
2024/01/09 09:09:36;;;;;;;5.88;4.15;;;-4.30;1.00;;;;;;4991655;28;20619;-78
2024/01/09 09:12:02;;;;;;;6.65;4.50;;;-4.20;1.00;;;;;;5023432;28;20318;-78
2024/01/09 09:14:28;;;;;;;7.43;4.35;;;-4.20;1.00;;;;;;4994477;28;20109;-78
2024/01/09 09:16:53;;;;;;;6.38;4.15;;;-4.10;1.00;;;;;;4981691;28;20046;-78
2024/01/09 09:19:22;;;;;;;8.07;4.60;;;-4.00;1.00;;;;;;4991299;28;20104;-78
2024/01/09 09:21:49;;;;;;;6.82;4.30;;;-4.00;1.00;;;;;;4997544;28;20108;-78
2024/01/09 09:24:16;;;;;;;8.95;4.07;;;-3.90;1.00;;;;;;4983751;28;20050;-78
2024/01/09 09:26:41;;;;;;;7.00;4.18;;;-3.90;1.00;;;;;;5027683;28;20045;-78
2024/01/09 09:29:09;;;;;;;7.20;4.78;;;-3.80;1.00;;;;;;4983584;28;20049;-78
2024/01/09 09:31:44;;;;;;;7.43;5.10;;;-3.80;1.00;;;;;;4992585;28;20088;-78
2024/01/09 09:34:09;;;;;;;7.22;4.35;;;-3.80;1.00;;;;;;4998529;28;20414;-78
2024/01/09 09:36:35;;;;;;;8.65;4.38;;;-3.70;1.00;;;;;;4986367;28;20072;-78
2024/01/09 09:39:02;;;;;;;7.93;4.57;;;-3.70;1.00;;;;;;4982566;28;20129;-79
2024/01/09 09:41:29;;;;;;;8.70;5.00;;;-3.60;1.00;;;;;;5026185;28;20058;-79
2024/01/09 09:43:56;;;;;;;7.95;4.70;;;-3.60;1.00;;;;;;4981373;28;20049;-79
2024/01/09 09:46:34;;;;;;;6.85;4.30;;;-3.60;1.00;;;;;;5000626;28;20141;-79
2024/01/09 09:49:01;;;;;;;6.65;4.70;;;-3.50;1.00;;;;;;4992932;28;20483;-79
2024/01/09 09:51:26;;;;;;;8.35;4.50;;;-3.50;1.00;;;;;;4997913;28;20034;-78
2024/01/09 09:53:53;;;;;;;6.53;4.57;;;-3.40;1.00;;;;;;4981573;28;20050;-79
2024/01/09 09:56:20;;;;;;;6.38;4.57;;;-3.40;1.00;;;;;;4992016;28;20055;-78
2024/01/09 09:58:46;;;;;;;8.93;4.80;;;-3.30;1.00;;;;;;4996252;28;20694;-78
2024/01/09 10:01:13;;;;;;;7.07;4.38;;;-3.40;1.00;;;;;;4992499;28;20058;-78
2024/01/09 10:03:56;;;;;;;17.88;10.93;;;-3.30;1.00;;;;;;5028965;28;20033;-79
2024/01/09 10:06:24;;;;;;;18.45;11.57;;;-3.20;1.00;;;;;;4979337;28;20046;-79
2024/01/09 10:08:53;;;;;;;7.20;5.25;;;-3.20;1.00;;;;;;5012478;28;20653;-80
2024/01/09 10:11:19;;;;;;;7.07;4.85;;;-3.10;1.00;;;;;;4996732;28;20591;-79
2024/01/09 10:13:45;;;;;;;7.50;5.50;;;-3.10;1.00;;;;;;5003781;28;20154;-80
2024/01/09 10:16:11;;;;;;;7.07;4.70;;;-3.00;1.00;;;;;;4980940;28;20046;-80
2024/01/09 10:18:37;;;;;;;6.63;4.47;;;-3.00;1.00;;;;;;4981619;28;20306;-80
2024/01/09 10:21:05;;;;;;;6.82;5.05;;;-2.90;1.00;;;;;;4996201;28;20065;-80
2024/01/09 10:23:31;;;;;;;10.95;5.78;;;-2.90;1.00;;;;;;4981293;28;20409;-80
2024/01/09 10:25:56;;;;;;;10.85;7.13;;;-2.90;1.00;;;;;;4980995;28;20065;-81
2024/01/09 10:28:23;;;;;;;8.38;5.75;;;-2.90;1.00;;;;;;4998982;28;20045;-80
2024/01/09 10:30:52;;;;;;;7.28;4.68;;;-2.80;1.00;;;;;;4991340;28;20521;-80
2024/01/09 10:33:19;;;;;;;7.70;4.90;;;-2.70;1.00;;;;;;5012709;28;20029;-80
2024/01/09 10:35:45;;;;;;;17.42;10.30;;;-2.70;1.00;;;;;;4988953;28;20368;-80
2024/01/09 10:38:11;;;;;;;14.88;9.25;;;-2.70;1.00;;;;;;4982012;28;20125;-80
2024/01/09 10:40:37;;;;;;;11.88;7.82;;;-2.60;1.00;;;;;;5014858;28;20069;-80
2024/01/09 10:43:06;;;;;;;10.50;6.93;;;-2.60;1.00;;;;;;4996565;28;20042;-79
2024/01/09 10:45:32;;;;;;;6.95;5.30;;;-2.60;1.00;;;;;;4979590;28;20121;-80
2024/01/09 10:47:58;;;;;;;8.40;6.45;;;-2.50;1.00;;;;;;5025196;28;20122;-80
2024/01/09 10:50:28;;;;;;;7.88;4.93;;;-2.50;1.00;;;;;;4979749;28;20034;-80
2024/01/09 10:52:57;;;;;;;8.18;5.32;;;-2.50;1.00;;;;;;4980595;28;20037;-80
2024/01/09 10:55:23;;;;;;;6.57;4.90;;;-2.40;1.00;;;;;;4997700;28;20065;-80
2024/01/09 10:57:49;;;;;;;6.30;4.78;;;-2.40;1.00;;;;;;4995131;28;20366;-81
2024/01/09 11:00:16;;;;;;;5.63;4.22;;;-2.40;1.00;;;;;;4996579;28;20104;-81
2024/01/09 11:02:42;;;;;;;7.10;5.10;;;-2.30;1.00;;;;;;5021481;28;20592;-81
2024/01/09 11:05:10;;;;;;;6.53;4.72;;;-2.30;1.00;;;;;;4990862;28;20042;-81
2024/01/09 11:07:43;;;;;;;6.45;4.50;;;-2.20;1.00;;;;;;4982394;28;20152;-83
2024/01/09 11:10:15;;;;;;;7.00;4.60;;;-2.20;1.00;;;;;;4975045;28;20045;-83
2024/01/09 11:12:43;;;;;;;8.02;5.60;;;-2.10;1.00;;;;;;4982296;28;20474;-84
2024/01/09 11:15:20;;;;;;;6.95;4.40;;;-2.10;1.00;;;;;;4998249;28;20409;-84
2024/01/09 11:17:54;;;;;;;7.68;3.90;;;-2.00;1.00;;;;;;4993020;28;20042;-84
2024/01/09 11:20:23;;;;;;;6.43;4.10;;;-2.00;1.00;;;;;;4978663;28;20061;-84
2024/01/09 11:22:49;;;;;;;7.43;4.65;;;-2.00;1.00;;;;;;4991711;28;20046;-85
2024/01/09 11:25:21;;;;;;;6.13;4.68;;;-1.90;1.00;;;;;;5030495;28;20537;-84
2024/01/09 11:27:49;;;;;;;6.45;4.45;;;-1.90;1.00;;;;;;4978193;28;20042;-84
2024/01/09 11:30:17;;;;;;;7.07;3.88;;;-1.80;1.00;;;;;;4992677;28;20080;-83
2024/01/09 11:32:45;;;;;;;4.15;3.42;;;-1.80;1.00;;;;;;4994151;28;20133;-84
2024/01/09 11:35:13;;;;;;;5.30;3.90;;;-1.80;1.00;;;;;;4994978;28;20117;-83
2024/01/09 11:37:41;;;;;;;6.53;4.35;;;-1.70;1.00;;;;;;4978031;28;20080;-83
2024/01/09 11:40:09;;;;;;;4.93;2.92;;;-1.70;1.00;;;;;;4991098;28;20037;-84
2024/01/09 11:42:36;;;;;;;6.00;3.80;;;-1.60;1.00;;;;;;4992656;28;20104;-83
2024/01/09 11:45:07;;;;;;;5.45;3.58;;;-1.60;1.00;;;;;;5007081;28;20049;-83
2024/01/09 11:47:37;;;;;;;6.03;3.80;;;-1.50;1.00;;;;;;4994543;28;20386;-83
2024/01/09 11:50:08;;;;;;;6.97;4.10;;;-1.40;1.00;;;;;;5000502;28;20123;-83
2024/01/09 11:52:35;;;;;;;6.60;3.88;;;-1.40;1.00;;;;;;4981011;28;20042;-83
2024/01/09 11:55:03;;;;;;;6.15;3.72;;;-1.40;1.00;;;;;;4995820;28;20591;-83
2024/01/09 11:57:29;;;;;;;6.00;3.33;;;-1.30;1.00;;;;;;4989154;28;20065;-83
2024/01/09 11:59:55;;;;;;;4.47;3.10;;;-1.30;1.00;;;;;;4981562;28;20127;-83
2024/01/09 12:02:21;;;;;;;5.00;3.22;;;-1.20;1.00;;;;;;4992326;28;20058;-83
2024/01/09 12:04:47;;;;;;;4.72;3.20;;;-1.20;1.00;;;;;;4995020;28;20521;-83
2024/01/09 12:07:13;;;;;;;4.75;3.03;;;-1.10;1.00;;;;;;4974032;28;20053;-83
2024/01/09 12:09:39;;;;;;;5.63;3.28;;;-1.10;1.00;;;;;;4984279;28;20184;-83
2024/01/09 12:12:09;;;;;;;4.88;3.42;;;-1.10;1.00;;;;;;4996835;28;20045;-80
2024/01/09 12:14:50;;;;;;;6.03;3.50;;;-1.10;1.00;;;;;;4982386;28;20045;-80
2024/01/09 12:17:33;;;;;;;4.82;3.42;;;-1.00;1.00;;;;;;4995138;28;20054;-81
2024/01/09 12:20:04;;;;;;;5.63;3.33;;;-1.00;1.00;;;;;;4973990;28;20037;-80
2024/01/09 12:22:35;;;;;;;4.68;3.33;;;-1.00;1.00;;;;;;4980627;28;20564;-81
2024/01/09 12:25:01;;;;;;;7.78;3.55;;;-1.00;1.00;;;;;;5017479;28;20464;-80
2024/01/09 12:27:28;;;;;;;5.05;3.38;;;-0.90;1.00;;;;;;4992432;28;20260;-80
2024/01/09 12:29:56;;;;;;;3.85;2.95;;;-0.90;1.00;;;;;;4979470;28;20046;-81
2024/01/09 12:32:22;;;;;;;5.40;3.55;;;-0.90;1.00;;;;;;4980587;28;20038;-81
2024/01/09 12:34:51;;;;;;;6.78;3.45;;;-0.80;1.00;;;;;;4990027;28;20614;-80
2024/01/09 12:37:17;;;;;;;4.95;3.40;;;-0.80;1.00;;;;;;4988295;28;20125;-81
2024/01/09 12:39:42;;;;;;;5.47;4.10;;;-0.80;1.00;;;;;;4992624;28;20121;-80
2024/01/09 12:42:10;;;;;;;5.30;3.80;;;-0.80;1.00;;;;;;4983570;28;20605;-80
2024/01/09 12:44:38;;;;;;;5.07;3.78;;;-0.90;1.00;;;;;;5024175;28;20056;-80
2024/01/09 12:47:06;;;;;;;6.40;4.10;;;-0.90;1.00;;;;;;4997979;28;20064;-81